sensor_id;sensor_type;location;lat;lon;timestamp;P1;durP1;ratioP1;P2;durP2;ratioP2
56319;SDS011;42226;42.382;23.748;2023-12-04T00:01:27;7.70;;;7.10;;
56319;SDS011;42226;42.382;23.748;2023-12-04T00:03:54;8.27;;;7.60;;
56319;SDS011;42226;42.382;23.748;2023-12-04T00:06:21;7.82;;;7.22;;
56319;SDS011;42226;42.382;23.748;2023-12-04T00:08:48;7.60;;;7.00;;
56319;SDS011;42226;42.382;23.748;2023-12-04T00:11:16;7.90;;;7.20;;
56319;SDS011;42226;42.382;23.748;2023-12-04T00:13:42;8.88;;;7.45;;
56319;SDS011;42226;42.382;23.748;2023-12-04T00:16:11;7.43;;;6.82;;
56319;SDS011;42226;42.382;23.748;2023-12-04T00:18:40;7.68;;;7.07;;
56319;SDS011;42226;42.382;23.748;2023-12-04T00:21:08;7.82;;;7.20;;
56319;SDS011;42226;42.382;23.748;2023-12-04T00:23:35;7.40;;;6.90;;
56319;SDS011;42226;42.382;23.748;2023-12-04T00:26:03;7.80;;;7.20;;
56319;SDS011;42226;42.382;23.748;2023-12-04T00:28:35;7.68;;;7.07;;
56319;SDS011;42226;42.382;23.748;2023-12-04T00:31:02;7.10;;;6.60;;
56319;SDS011;42226;42.382;23.748;2023-12-04T00:33:30;7.22;;;6.63;;
56319;SDS011;42226;42.382;23.748;2023-12-04T00:35:57;7.80;;;7.20;;
56319;SDS011;42226;42.382;23.748;2023-12-04T00:38:26;7.60;;;7.00;;
56319;SDS011;42226;42.382;23.748;2023-12-04T00:40:52;7.20;;;6.70;;
56319;SDS011;42226;42.382;23.748;2023-12-04T00:43:20;7.32;;;6.72;;
56319;SDS011;42226;42.382;23.748;2023-12-04T00:45:47;7.28;;;6.57;;
56319;SDS011;42226;42.382;23.748;2023-12-04T00:48:14;6.90;;;6.40;;
56319;SDS011;42226;42.382;23.748;2023-12-04T00:50:41;6.82;;;6.32;;
56319;SDS011;42226;42.382;23.748;2023-12-04T00:53:09;6.70;;;6.20;;
56319;SDS011;42226;42.382;23.748;2023-12-04T00:55:37;6.57;;;6.13;;
56319;SDS011;42226;42.382;23.748;2023-12-04T00:58:04;6.75;;;6.25;;
56319;SDS011;42226;42.382;23.748;2023-12-04T01:00:31;7.38;;;6.78;;
56319;SDS011;42226;42.382;23.748;2023-12-04T01:02:57;7.60;;;7.00;;
56319;SDS011;42226;42.382;23.748;2023-12-04T01:05:25;7.88;;;7.25;;
56319;SDS011;42226;42.382;23.748;2023-12-04T01:07:52;7.60;;;7.10;;
56319;SDS011;42226;42.382;23.748;2023-12-04T01:10:20;7.65;;;7.05;;
56319;SDS011;42226;42.382;23.748;2023-12-04T01:12:48;8.13;;;7.43;;
56319;SDS011;42226;42.382;23.748;2023-12-04T01:15:15;7.55;;;6.95;;
56319;SDS011;42226;42.382;23.748;2023-12-04T01:17:43;8.07;;;7.47;;
56319;SDS011;42226;42.382;23.748;2023-12-04T01:20:10;8.65;;;8.02;;
56319;SDS011;42226;42.382;23.748;2023-12-04T01:22:39;8.05;;;7.38;;
56319;SDS011;42226;42.382;23.748;2023-12-04T01:25:06;8.38;;;7.68;;
56319;SDS011;42226;42.382;23.748;2023-12-04T01:27:35;8.15;;;7.53;;
56319;SDS011;42226;42.382;23.748;2023-12-04T01:30:03;7.78;;;7.13;;
56319;SDS011;42226;42.382;23.748;2023-12-04T01:32:35;8.13;;;7.50;;
56319;SDS011;42226;42.382;23.748;2023-12-04T01:35:02;8.25;;;7.50;;
56319;SDS011;42226;42.382;23.748;2023-12-04T01:37:30;8.10;;;7.40;;
56319;SDS011;42226;42.382;23.748;2023-12-04T01:39:57;8.52;;;7.82;;
56319;SDS011;42226;42.382;23.748;2023-12-04T01:42:25;8.40;;;7.60;;
56319;SDS011;42226;42.382;23.748;2023-12-04T01:44:52;7.60;;;7.07;;
56319;SDS011;42226;42.382;23.748;2023-12-04T01:47:20;8.52;;;7.82;;
56319;SDS011;42226;42.382;23.748;2023-12-04T01:49:48;8.95;;;8.25;;
56319;SDS011;42226;42.382;23.748;2023-12-04T01:52:15;8.15;;;7.45;;
56319;SDS011;42226;42.382;23.748;2023-12-04T01:54:44;9.05;;;8.25;;
56319;SDS011;42226;42.382;23.748;2023-12-04T01:57:11;8.23;;;7.43;;
56319;SDS011;42226;42.382;23.748;2023-12-04T01:59:39;8.27;;;7.53;;
56319;SDS011;42226;42.382;23.748;2023-12-04T02:02:06;8.20;;;7.50;;
56319;SDS011;42226;42.382;23.748;2023-12-04T02:04:34;8.20;;;7.60;;
56319;SDS011;42226;42.382;23.748;2023-12-04T02:07:01;8.50;;;7.70;;
56319;SDS011;42226;42.382;23.748;2023-12-04T02:09:29;8.60;;;7.80;;
56319;SDS011;42226;42.382;23.748;2023-12-04T02:11:58;8.63;;;7.85;;
56319;SDS011;42226;42.382;23.748;2023-12-04T02:14:26;8.75;;;8.05;;
56319;SDS011;42226;42.382;23.748;2023-12-04T02:16:53;8.50;;;7.80;;
56319;SDS011;42226;42.382;23.748;2023-12-04T02:19:23;8.20;;;7.40;;
56319;SDS011;42226;42.382;23.748;2023-12-04T02:21:50;8.35;;;7.65;;
56319;SDS011;42226;42.382;23.748;2023-12-04T02:24:17;7.32;;;6.72;;
56319;SDS011;42226;42.382;23.748;2023-12-04T02:26:51;7.72;;;7.13;;
56319;SDS011;42226;42.382;23.748;2023-12-04T02:29:32;7.50;;;6.90;;
56319;SDS011;42226;42.382;23.748;2023-12-04T02:32:08;7.95;;;7.25;;
56319;SDS011;42226;42.382;23.748;2023-12-04T02:34:41;7.53;;;6.93;;
56319;SDS011;42226;42.382;23.748;2023-12-04T02:37:11;8.00;;;7.40;;
56319;SDS011;42226;42.382;23.748;2023-12-04T02:39:40;7.07;;;6.53;;
56319;SDS011;42226;42.382;23.748;2023-12-04T02:42:08;8.40;;;7.70;;
56319;SDS011;42226;42.382;23.748;2023-12-04T02:44:39;7.13;;;6.57;;
56319;SDS011;42226;42.382;23.748;2023-12-04T02:47:06;7.38;;;6.78;;
56319;SDS011;42226;42.382;23.748;2023-12-04T02:49:34;7.68;;;7.03;;
56319;SDS011;42226;42.382;23.748;2023-12-04T02:52:02;8.00;;;7.35;;
56319;SDS011;42226;42.382;23.748;2023-12-04T02:54:30;8.05;;;7.35;;
56319;SDS011;42226;42.382;23.748;2023-12-04T02:56:58;7.05;;;6.35;;
56319;SDS011;42226;42.382;23.748;2023-12-04T03:02:30;8.02;;;7.43;;
56319;SDS011;42226;42.382;23.748;2023-12-04T03:04:58;7.45;;;6.85;;
56319;SDS011;42226;42.382;23.748;2023-12-04T03:07:26;8.13;;;7.47;;
56319;SDS011;42226;42.382;23.748;2023-12-04T03:09:53;8.20;;;7.40;;
56319;SDS011;42226;42.382;23.748;2023-12-04T03:12:20;8.60;;;7.60;;
56319;SDS011;42226;42.382;23.748;2023-12-04T03:14:48;8.13;;;7.47;;
56319;SDS011;42226;42.382;23.748;2023-12-04T03:17:15;8.30;;;7.63;;
56319;SDS011;42226;42.382;23.748;2023-12-04T03:19:43;8.48;;;7.78;;
56319;SDS011;42226;42.382;23.748;2023-12-04T03:22:09;8.07;;;7.38;;
56319;SDS011;42226;42.382;23.748;2023-12-04T03:24:39;8.10;;;7.40;;
56319;SDS011;42226;42.382;23.748;2023-12-04T03:27:07;7.72;;;7.05;;
56319;SDS011;42226;42.382;23.748;2023-12-04T03:29:34;8.25;;;7.57;;
56319;SDS011;42226;42.382;23.748;2023-12-04T03:32:02;7.60;;;6.90;;
56319;SDS011;42226;42.382;23.748;2023-12-04T03:34:30;7.57;;;6.97;;
56319;SDS011;42226;42.382;23.748;2023-12-04T03:36:58;7.43;;;6.85;;
56319;SDS011;42226;42.382;23.748;2023-12-04T03:39:25;7.63;;;6.93;;
56319;SDS011;42226;42.382;23.748;2023-12-04T03:41:52;7.70;;;7.00;;
56319;SDS011;42226;42.382;23.748;2023-12-04T03:44:19;8.85;;;8.15;;
56319;SDS011;42226;42.382;23.748;2023-12-04T03:46:47;8.57;;;7.88;;
56319;SDS011;42226;42.382;23.748;2023-12-04T03:49:13;8.60;;;7.88;;
56319;SDS011;42226;42.382;23.748;2023-12-04T03:51:41;9.10;;;8.30;;
56319;SDS011;42226;42.382;23.748;2023-12-04T03:54:09;9.20;;;8.30;;
56319;SDS011;42226;42.382;23.748;2023-12-04T03:56:37;8.85;;;8.05;;
56319;SDS011;42226;42.382;23.748;2023-12-04T03:59:05;9.18;;;8.38;;
56319;SDS011;42226;42.382;23.748;2023-12-04T04:01:33;8.43;;;7.63;;
56319;SDS011;42226;42.382;23.748;2023-12-04T04:04:01;8.90;;;8.10;;
56319;SDS011;42226;42.382;23.748;2023-12-04T04:06:28;9.38;;;8.38;;
56319;SDS011;42226;42.382;23.748;2023-12-04T04:08:56;9.20;;;7.78;;
56319;SDS011;42226;42.382;23.748;2023-12-04T04:11:23;8.50;;;7.80;;
56319;SDS011;42226;42.382;23.748;2023-12-04T04:13:50;8.25;;;7.55;;
56319;SDS011;42226;42.382;23.748;2023-12-04T04:16:17;8.60;;;7.82;;
56319;SDS011;42226;42.382;23.748;2023-12-04T04:18:44;8.80;;;7.93;;
56319;SDS011;42226;42.382;23.748;2023-12-04T04:21:12;8.93;;;8.00;;
56319;SDS011;42226;42.382;23.748;2023-12-04T04:23:40;8.10;;;7.50;;
56319;SDS011;42226;42.382;23.748;2023-12-04T04:26:08;8.27;;;7.57;;
56319;SDS011;42226;42.382;23.748;2023-12-04T04:28:34;7.53;;;6.93;;
56319;SDS011;42226;42.382;23.748;2023-12-04T04:31:02;8.05;;;7.43;;
56319;SDS011;42226;42.382;23.748;2023-12-04T04:33:30;8.10;;;7.40;;
56319;SDS011;42226;42.382;23.748;2023-12-04T04:35:58;7.80;;;7.20;;
56319;SDS011;42226;42.382;23.748;2023-12-04T04:38:24;7.90;;;7.25;;
56319;SDS011;42226;42.382;23.748;2023-12-04T04:40:52;7.43;;;6.88;;
56319;SDS011;42226;42.382;23.748;2023-12-04T04:43:20;7.78;;;7.18;;
56319;SDS011;42226;42.382;23.748;2023-12-04T04:45:47;8.02;;;7.32;;
56319;SDS011;42226;42.382;23.748;2023-12-04T04:48:15;8.00;;;7.40;;
56319;SDS011;42226;42.382;23.748;2023-12-04T04:50:43;8.18;;;7.40;;
56319;SDS011;42226;42.382;23.748;2023-12-04T04:53:10;8.10;;;7.50;;
56319;SDS011;42226;42.382;23.748;2023-12-04T04:55:37;7.90;;;7.30;;
56319;SDS011;42226;42.382;23.748;2023-12-04T04:58:05;8.23;;;7.57;;
56319;SDS011;42226;42.382;23.748;2023-12-04T05:00:32;8.30;;;7.70;;
56319;SDS011;42226;42.382;23.748;2023-12-04T05:02:59;8.35;;;7.60;;
56319;SDS011;42226;42.382;23.748;2023-12-04T05:05:26;8.30;;;7.60;;
56319;SDS011;42226;42.382;23.748;2023-12-04T05:07:53;8.23;;;7.47;;
56319;SDS011;42226;42.382;23.748;2023-12-04T05:10:21;8.00;;;7.40;;
56319;SDS011;42226;42.382;23.748;2023-12-04T05:12:48;8.15;;;7.55;;
56319;SDS011;42226;42.382;23.748;2023-12-04T05:15:16;9.77;;;8.88;;
56319;SDS011;42226;42.382;23.748;2023-12-04T05:17:43;8.85;;;8.15;;
56319;SDS011;42226;42.382;23.748;2023-12-04T05:20:11;8.35;;;7.75;;
56319;SDS011;42226;42.382;23.748;2023-12-04T05:22:37;7.82;;;7.22;;
56319;SDS011;42226;42.382;23.748;2023-12-04T05:25:05;7.43;;;6.82;;
56319;SDS011;42226;42.382;23.748;2023-12-04T05:27:32;7.53;;;7.03;;
56319;SDS011;42226;42.382;23.748;2023-12-04T05:29:59;7.65;;;7.07;;
56319;SDS011;42226;42.382;23.748;2023-12-04T05:32:25;7.53;;;7.03;;
56319;SDS011;42226;42.382;23.748;2023-12-04T05:34:52;7.22;;;6.70;;
56319;SDS011;42226;42.382;23.748;2023-12-04T05:37:19;7.88;;;7.25;;
56319;SDS011;42226;42.382;23.748;2023-12-04T05:39:46;7.13;;;6.53;;
56319;SDS011;42226;42.382;23.748;2023-12-04T05:42:13;7.03;;;6.53;;
56319;SDS011;42226;42.382;23.748;2023-12-04T05:44:41;7.70;;;7.10;;
56319;SDS011;42226;42.382;23.748;2023-12-04T05:47:08;7.85;;;7.32;;
56319;SDS011;42226;42.382;23.748;2023-12-04T05:49:37;8.27;;;7.57;;
56319;SDS011;42226;42.382;23.748;2023-12-04T05:52:06;7.78;;;7.18;;
56319;SDS011;42226;42.382;23.748;2023-12-04T05:54:32;7.55;;;6.95;;
56319;SDS011;42226;42.382;23.748;2023-12-04T05:57:00;7.90;;;7.20;;
56319;SDS011;42226;42.382;23.748;2023-12-04T05:59:27;7.60;;;7.03;;
56319;SDS011;42226;42.382;23.748;2023-12-04T06:01:54;7.60;;;7.00;;
56319;SDS011;42226;42.382;23.748;2023-12-04T06:04:21;7.70;;;7.00;;
56319;SDS011;42226;42.382;23.748;2023-12-04T06:06:49;8.20;;;7.55;;
56319;SDS011;42226;42.382;23.748;2023-12-04T06:09:17;7.95;;;7.35;;
56319;SDS011;42226;42.382;23.748;2023-12-04T06:11:44;8.43;;;7.72;;
56319;SDS011;42226;42.382;23.748;2023-12-04T06:14:12;7.97;;;7.38;;
56319;SDS011;42226;42.382;23.748;2023-12-04T06:16:40;8.20;;;7.60;;
56319;SDS011;42226;42.382;23.748;2023-12-04T06:19:07;7.70;;;7.10;;
56319;SDS011;42226;42.382;23.748;2023-12-04T06:21:34;8.05;;;7.45;;
56319;SDS011;42226;42.382;23.748;2023-12-04T06:24:02;8.10;;;7.47;;
56319;SDS011;42226;42.382;23.748;2023-12-04T06:26:31;8.10;;;7.47;;
56319;SDS011;42226;42.382;23.748;2023-12-04T06:29:00;8.20;;;7.50;;
56319;SDS011;42226;42.382;23.748;2023-12-04T07:26:33;7.97;;;7.28;;
56319;SDS011;42226;42.382;23.748;2023-12-04T07:29:04;8.05;;;7.38;;
56319;SDS011;42226;42.382;23.748;2023-12-04T07:31:34;7.72;;;7.03;;
56319;SDS011;42226;42.382;23.748;2023-12-04T07:44:34;7.85;;;7.22;;
56319;SDS011;42226;42.382;23.748;2023-12-04T07:47:02;8.13;;;7.50;;
56319;SDS011;42226;42.382;23.748;2023-12-04T07:49:30;7.90;;;7.28;;
56319;SDS011;42226;42.382;23.748;2023-12-04T07:51:57;7.75;;;7.15;;
56319;SDS011;42226;42.382;23.748;2023-12-04T07:54:23;7.97;;;7.28;;
56319;SDS011;42226;42.382;23.748;2023-12-04T07:59:58;8.00;;;7.40;;
56319;SDS011;42226;42.382;23.748;2023-12-04T08:02:24;8.15;;;7.43;;
56319;SDS011;42226;42.382;23.748;2023-12-04T08:04:51;7.88;;;7.18;;
56319;SDS011;42226;42.382;23.748;2023-12-04T08:07:18;7.65;;;7.00;;
56319;SDS011;42226;42.382;23.748;2023-12-04T08:09:45;7.32;;;6.80;;
56319;SDS011;42226;42.382;23.748;2023-12-04T08:12:13;7.25;;;6.65;;
56319;SDS011;42226;42.382;23.748;2023-12-04T08:14:41;7.57;;;6.88;;
56319;SDS011;42226;42.382;23.748;2023-12-04T08:17:08;7.03;;;6.53;;
56319;SDS011;42226;42.382;23.748;2023-12-04T08:19:36;7.10;;;6.55;;
56319;SDS011;42226;42.382;23.748;2023-12-04T08:22:04;7.10;;;6.60;;
56319;SDS011;42226;42.382;23.748;2023-12-04T08:24:31;8.32;;;7.63;;
56319;SDS011;42226;42.382;23.748;2023-12-04T08:26:58;7.90;;;7.20;;
56319;SDS011;42226;42.382;23.748;2023-12-04T08:29:25;8.10;;;7.40;;
56319;SDS011;42226;42.382;23.748;2023-12-04T08:31:52;7.50;;;6.80;;
56319;SDS011;42226;42.382;23.748;2023-12-04T08:34:20;7.30;;;6.80;;
56319;SDS011;42226;42.382;23.748;2023-12-04T08:36:47;7.20;;;6.70;;
56319;SDS011;42226;42.382;23.748;2023-12-04T08:39:14;7.80;;;7.05;;
56319;SDS011;42226;42.382;23.748;2023-12-04T08:41:45;7.45;;;6.85;;
56319;SDS011;42226;42.382;23.748;2023-12-04T08:44:13;8.23;;;7.50;;
56319;SDS011;42226;42.382;23.748;2023-12-04T08:46:42;7.32;;;6.82;;
56319;SDS011;42226;42.382;23.748;2023-12-04T08:49:10;7.30;;;6.80;;
56319;SDS011;42226;42.382;23.748;2023-12-04T08:51:38;7.00;;;6.50;;
56319;SDS011;42226;42.382;23.748;2023-12-04T08:54:04;7.53;;;6.97;;
56319;SDS011;42226;42.382;23.748;2023-12-04T08:56:34;6.93;;;6.43;;
56319;SDS011;42226;42.382;23.748;2023-12-04T08:59:00;6.90;;;6.30;;
56319;SDS011;42226;42.382;23.748;2023-12-04T09:01:29;7.22;;;6.72;;
56319;SDS011;42226;42.382;23.748;2023-12-04T09:03:56;7.00;;;6.50;;
56319;SDS011;42226;42.382;23.748;2023-12-04T09:06:22;6.90;;;6.40;;
56319;SDS011;42226;42.382;23.748;2023-12-04T09:08:50;6.75;;;6.25;;
56319;SDS011;42226;42.382;23.748;2023-12-04T09:11:17;7.32;;;6.75;;
56319;SDS011;42226;42.382;23.748;2023-12-04T09:13:45;7.10;;;6.60;;
56319;SDS011;42226;42.382;23.748;2023-12-04T09:16:12;6.85;;;6.35;;
56319;SDS011;42226;42.382;23.748;2023-12-04T09:18:40;7.63;;;6.93;;
56319;SDS011;42226;42.382;23.748;2023-12-04T09:21:07;6.88;;;6.38;;
56319;SDS011;42226;42.382;23.748;2023-12-04T09:23:35;7.25;;;6.70;;
56319;SDS011;42226;42.382;23.748;2023-12-04T09:26:02;7.28;;;6.78;;
56319;SDS011;42226;42.382;23.748;2023-12-04T09:28:30;6.63;;;6.13;;
56319;SDS011;42226;42.382;23.748;2023-12-04T09:30:57;6.90;;;6.40;;
56319;SDS011;42226;42.382;23.748;2023-12-04T09:33:25;7.50;;;6.90;;
56319;SDS011;42226;42.382;23.748;2023-12-04T09:38:41;6.95;;;6.45;;
56319;SDS011;42226;42.382;23.748;2023-12-04T09:41:08;7.60;;;7.00;;
56319;SDS011;42226;42.382;23.748;2023-12-04T09:43:44;7.40;;;6.80;;
56319;SDS011;42226;42.382;23.748;2023-12-04T09:59:06;6.90;;;6.40;;
56319;SDS011;42226;42.382;23.748;2023-12-04T10:01:40;7.55;;;6.95;;
56319;SDS011;42226;42.382;23.748;2023-12-04T10:07:22;7.50;;;6.90;;
56319;SDS011;42226;42.382;23.748;2023-12-04T10:09:51;7.80;;;7.20;;
56319;SDS011;42226;42.382;23.748;2023-12-04T10:12:20;7.38;;;6.78;;
56319;SDS011;42226;42.382;23.748;2023-12-04T10:17:36;7.13;;;6.63;;
56319;SDS011;42226;42.382;23.748;2023-12-04T10:20:09;7.25;;;6.68;;
56319;SDS011;42226;42.382;23.748;2023-12-04T10:22:39;7.70;;;7.10;;
56319;SDS011;42226;42.382;23.748;2023-12-04T10:28:21;7.28;;;6.68;;
56319;SDS011;42226;42.382;23.748;2023-12-04T10:30:50;7.30;;;6.65;;
56319;SDS011;42226;42.382;23.748;2023-12-04T10:33:38;7.55;;;6.95;;
56319;SDS011;42226;42.382;23.748;2023-12-04T10:36:11;7.38;;;6.80;;
56319;SDS011;42226;42.382;23.748;2023-12-04T10:38:38;7.68;;;7.07;;
56319;SDS011;42226;42.382;23.748;2023-12-04T10:41:43;7.55;;;7.00;;
56319;SDS011;42226;42.382;23.748;2023-12-04T10:44:15;7.75;;;7.15;;
56319;SDS011;42226;42.382;23.748;2023-12-04T10:56:41;7.50;;;6.90;;
56319;SDS011;42226;42.382;23.748;2023-12-04T11:02:14;8.07;;;7.47;;
56319;SDS011;42226;42.382;23.748;2023-12-04T11:36:06;8.05;;;7.35;;
56319;SDS011;42226;42.382;23.748;2023-12-04T11:39:25;7.07;;;6.50;;
56319;SDS011;42226;42.382;23.748;2023-12-04T11:44:58;7.30;;;6.70;;
56319;SDS011;42226;42.382;23.748;2023-12-04T11:50:33;8.00;;;7.30;;
56319;SDS011;42226;42.382;23.748;2023-12-04T12:14:26;7.82;;;7.22;;
56319;SDS011;42226;42.382;23.748;2023-12-04T12:38:18;7.20;;;6.65;;
56319;SDS011;42226;42.382;23.748;2023-12-04T12:40:46;7.68;;;7.05;;
56319;SDS011;42226;42.382;23.748;2023-12-04T12:46:54;7.00;;;6.50;;
56319;SDS011;42226;42.382;23.748;2023-12-04T12:53:01;6.95;;;6.35;;
56319;SDS011;42226;42.382;23.748;2023-12-04T12:59:11;7.03;;;6.43;;
56319;SDS011;42226;42.382;23.748;2023-12-04T13:10:47;7.32;;;6.72;;
56319;SDS011;42226;42.382;23.748;2023-12-04T13:13:16;7.07;;;6.47;;
56319;SDS011;42226;42.382;23.748;2023-12-04T13:15:43;7.00;;;6.50;;
56319;SDS011;42226;42.382;23.748;2023-12-04T13:18:10;6.78;;;6.28;;
56319;SDS011;42226;42.382;23.748;2023-12-04T13:20:37;6.63;;;6.20;;
56319;SDS011;42226;42.382;23.748;2023-12-04T13:23:05;6.78;;;6.28;;
56319;SDS011;42226;42.382;23.748;2023-12-04T13:25:32;7.13;;;6.55;;
56319;SDS011;42226;42.382;23.748;2023-12-04T13:27:59;7.03;;;6.55;;
56319;SDS011;42226;42.382;23.748;2023-12-04T13:30:34;7.10;;;6.50;;
56319;SDS011;42226;42.382;23.748;2023-12-04T13:36:05;7.05;;;6.45;;
56319;SDS011;42226;42.382;23.748;2023-12-04T13:41:11;7.65;;;7.05;;
56319;SDS011;42226;42.382;23.748;2023-12-04T13:44:05;8.38;;;7.68;;
56319;SDS011;42226;42.382;23.748;2023-12-04T13:46:32;8.10;;;7.40;;
56319;SDS011;42226;42.382;23.748;2023-12-04T13:48:59;7.70;;;7.10;;
56319;SDS011;42226;42.382;23.748;2023-12-04T14:06:12;8.48;;;7.78;;
56319;SDS011;42226;42.382;23.748;2023-12-04T14:08:43;7.72;;;7.13;;
56319;SDS011;42226;42.382;23.748;2023-12-04T14:11:11;7.57;;;6.97;;
56319;SDS011;42226;42.382;23.748;2023-12-04T15:06:33;9.25;;;8.27;;
56319;SDS011;42226;42.382;23.748;2023-12-04T15:09:00;9.05;;;8.25;;
56319;SDS011;42226;42.382;23.748;2023-12-04T16:22:40;9.90;;;8.90;;
56319;SDS011;42226;42.382;23.748;2023-12-04T16:25:09;9.77;;;8.88;;
56319;SDS011;42226;42.382;23.748;2023-12-04T16:34:32;10.05;;;8.95;;
56319;SDS011;42226;42.382;23.748;2023-12-04T16:40:09;9.35;;;8.55;;
56319;SDS011;42226;42.382;23.748;2023-12-04T16:42:36;9.50;;;8.60;;
56319;SDS011;42226;42.382;23.748;2023-12-04T16:45:05;9.38;;;8.57;;
56319;SDS011;42226;42.382;23.748;2023-12-04T16:47:36;9.73;;;8.73;;
56319;SDS011;42226;42.382;23.748;2023-12-04T16:50:04;9.82;;;8.93;;
56319;SDS011;42226;42.382;23.748;2023-12-04T16:52:37;10.82;;;9.80;;
56319;SDS011;42226;42.382;23.748;2023-12-04T16:55:05;10.65;;;9.55;;
56319;SDS011;42226;42.382;23.748;2023-12-04T16:57:32;11.27;;;10.05;;
56319;SDS011;42226;42.382;23.748;2023-12-04T17:00:01;11.57;;;10.38;;
56319;SDS011;42226;42.382;23.748;2023-12-04T17:02:30;12.00;;;10.85;;
56319;SDS011;42226;42.382;23.748;2023-12-04T17:04:57;12.10;;;10.90;;
56319;SDS011;42226;42.382;23.748;2023-12-04T17:07:25;11.50;;;10.40;;
56319;SDS011;42226;42.382;23.748;2023-12-04T17:09:53;12.20;;;10.90;;
56319;SDS011;42226;42.382;23.748;2023-12-04T17:12:21;12.30;;;10.48;;
56319;SDS011;42226;42.382;23.748;2023-12-04T17:14:49;15.55;;;13.15;;
56319;SDS011;42226;42.382;23.748;2023-12-04T17:17:17;13.48;;;12.07;;
56319;SDS011;42226;42.382;23.748;2023-12-04T17:19:45;14.55;;;12.82;;
56319;SDS011;42226;42.382;23.748;2023-12-04T17:22:12;14.93;;;12.73;;
56319;SDS011;42226;42.382;23.748;2023-12-04T17:24:39;13.00;;;11.30;;
56319;SDS011;42226;42.382;23.748;2023-12-04T17:27:07;11.27;;;10.10;;
56319;SDS011;42226;42.382;23.748;2023-12-04T17:29:34;13.50;;;11.73;;
56319;SDS011;42226;42.382;23.748;2023-12-04T17:32:03;14.00;;;12.05;;
56319;SDS011;42226;42.382;23.748;2023-12-04T17:34:30;13.95;;;12.32;;
56319;SDS011;42226;42.382;23.748;2023-12-04T17:36:58;16.13;;;14.02;;
56319;SDS011;42226;42.382;23.748;2023-12-04T17:39:26;16.17;;;14.35;;
56319;SDS011;42226;42.382;23.748;2023-12-04T17:41:53;19.10;;;15.57;;
56319;SDS011;42226;42.382;23.748;2023-12-04T17:44:21;18.15;;;15.00;;
56319;SDS011;42226;42.382;23.748;2023-12-04T17:46:50;21.10;;;16.77;;
56319;SDS011;42226;42.382;23.748;2023-12-04T17:49:18;21.73;;;17.45;;
56319;SDS011;42226;42.382;23.748;2023-12-04T17:51:44;21.45;;;16.70;;
56319;SDS011;42226;42.382;23.748;2023-12-04T17:54:12;22.63;;;16.88;;
56319;SDS011;42226;42.382;23.748;2023-12-04T17:56:39;24.25;;;18.02;;
56319;SDS011;42226;42.382;23.748;2023-12-04T17:59:07;25.85;;;17.27;;
56319;SDS011;42226;42.382;23.748;2023-12-04T18:01:34;25.13;;;18.25;;
56319;SDS011;42226;42.382;23.748;2023-12-04T18:04:01;23.45;;;19.10;;
56319;SDS011;42226;42.382;23.748;2023-12-04T18:06:29;27.23;;;19.95;;
56319;SDS011;42226;42.382;23.748;2023-12-04T18:08:58;28.58;;;19.33;;
56319;SDS011;42226;42.382;23.748;2023-12-04T18:11:26;27.05;;;20.05;;
56319;SDS011;42226;42.382;23.748;2023-12-04T18:13:54;31.42;;;22.10;;
56319;SDS011;42226;42.382;23.748;2023-12-04T18:16:21;58.15;;;25.17;;
56319;SDS011;42226;42.382;23.748;2023-12-04T18:18:48;28.10;;;21.67;;
56319;SDS011;42226;42.382;23.748;2023-12-04T18:21:16;27.27;;;21.15;;
56319;SDS011;42226;42.382;23.748;2023-12-04T18:23:44;28.05;;;22.02;;
56319;SDS011;42226;42.382;23.748;2023-12-04T18:26:13;30.52;;;22.02;;
56319;SDS011;42226;42.382;23.748;2023-12-04T18:28:40;28.88;;;20.55;;
56319;SDS011;42226;42.382;23.748;2023-12-04T18:31:08;29.73;;;20.98;;
56319;SDS011;42226;42.382;23.748;2023-12-04T18:33:36;27.63;;;20.85;;
56319;SDS011;42226;42.382;23.748;2023-12-04T18:36:07;28.77;;;21.92;;
56319;SDS011;42226;42.382;23.748;2023-12-04T18:38:45;33.80;;;23.00;;
56319;SDS011;42226;42.382;23.748;2023-12-04T18:41:19;31.38;;;21.98;;
56319;SDS011;42226;42.382;23.748;2023-12-04T18:43:47;32.90;;;22.13;;
56319;SDS011;42226;42.382;23.748;2023-12-04T18:46:15;31.55;;;22.65;;
56319;SDS011;42226;42.382;23.748;2023-12-04T18:48:44;30.27;;;21.10;;
56319;SDS011;42226;42.382;23.748;2023-12-04T18:51:14;30.02;;;21.17;;
56319;SDS011;42226;42.382;23.748;2023-12-04T18:53:42;31.48;;;22.55;;
56319;SDS011;42226;42.382;23.748;2023-12-04T18:56:11;34.67;;;23.33;;
56319;SDS011;42226;42.382;23.748;2023-12-04T18:58:39;31.52;;;21.95;;
56319;SDS011;42226;42.382;23.748;2023-12-04T19:01:06;30.98;;;21.98;;
56319;SDS011;42226;42.382;23.748;2023-12-04T19:03:34;31.08;;;21.75;;
56319;SDS011;42226;42.382;23.748;2023-12-04T19:06:02;30.50;;;22.70;;
56319;SDS011;42226;42.382;23.748;2023-12-04T19:08:31;30.17;;;21.38;;
56319;SDS011;42226;42.382;23.748;2023-12-04T19:11:00;28.08;;;21.02;;
56319;SDS011;42226;42.382;23.748;2023-12-04T19:13:27;32.20;;;21.42;;
56319;SDS011;42226;42.382;23.748;2023-12-04T19:15:54;32.92;;;22.52;;
56319;SDS011;42226;42.382;23.748;2023-12-04T19:18:21;29.33;;;21.02;;
56319;SDS011;42226;42.382;23.748;2023-12-04T19:20:48;34.03;;;21.85;;
56319;SDS011;42226;42.382;23.748;2023-12-04T19:23:17;31.20;;;22.65;;
56319;SDS011;42226;42.382;23.748;2023-12-04T19:25:46;34.13;;;23.00;;
56319;SDS011;42226;42.382;23.748;2023-12-04T19:28:13;31.65;;;21.77;;
56319;SDS011;42226;42.382;23.748;2023-12-04T19:30:41;29.55;;;20.38;;
56319;SDS011;42226;42.382;23.748;2023-12-04T19:33:08;31.52;;;20.45;;
56319;SDS011;42226;42.382;23.748;2023-12-04T19:35:36;26.75;;;20.00;;
56319;SDS011;42226;42.382;23.748;2023-12-04T19:38:03;28.55;;;20.20;;
56319;SDS011;42226;42.382;23.748;2023-12-04T19:40:31;26.83;;;20.60;;
56319;SDS011;42226;42.382;23.748;2023-12-04T19:42:58;30.88;;;21.35;;
56319;SDS011;42226;42.382;23.748;2023-12-04T19:48:18;27.70;;;20.23;;
56319;SDS011;42226;42.382;23.748;2023-12-04T19:50:46;30.15;;;20.38;;
56319;SDS011;42226;42.382;23.748;2023-12-04T19:53:13;29.42;;;21.17;;
56319;SDS011;42226;42.382;23.748;2023-12-04T19:55:41;29.25;;;21.25;;
56319;SDS011;42226;42.382;23.748;2023-12-04T19:58:08;30.13;;;21.50;;
56319;SDS011;42226;42.382;23.748;2023-12-04T20:00:36;32.17;;;21.83;;
56319;SDS011;42226;42.382;23.748;2023-12-04T20:03:03;33.97;;;22.90;;
56319;SDS011;42226;42.382;23.748;2023-12-04T20:05:31;31.63;;;22.08;;
56319;SDS011;42226;42.382;23.748;2023-12-04T20:07:59;31.83;;;22.75;;
56319;SDS011;42226;42.382;23.748;2023-12-04T20:10:26;33.22;;;22.92;;
56319;SDS011;42226;42.382;23.748;2023-12-04T20:12:57;35.17;;;23.05;;
56319;SDS011;42226;42.382;23.748;2023-12-04T20:15:25;35.65;;;23.50;;
56319;SDS011;42226;42.382;23.748;2023-12-04T20:17:52;29.77;;;21.73;;
56319;SDS011;42226;42.382;23.748;2023-12-04T20:20:19;33.63;;;23.08;;
56319;SDS011;42226;42.382;23.748;2023-12-04T20:22:46;32.95;;;22.70;;
56319;SDS011;42226;42.382;23.748;2023-12-04T20:25:14;34.40;;;23.05;;
56319;SDS011;42226;42.382;23.748;2023-12-04T20:27:42;37.30;;;22.80;;
56319;SDS011;42226;42.382;23.748;2023-12-04T20:30:08;31.23;;;21.88;;
56319;SDS011;42226;42.382;23.748;2023-12-04T20:32:36;35.42;;;22.20;;
56319;SDS011;42226;42.382;23.748;2023-12-04T20:35:03;32.97;;;22.48;;
56319;SDS011;42226;42.382;23.748;2023-12-04T20:37:32;32.97;;;21.52;;
56319;SDS011;42226;42.382;23.748;2023-12-04T20:40:00;34.40;;;23.60;;
56319;SDS011;42226;42.382;23.748;2023-12-04T20:42:27;34.75;;;23.13;;